createdAt,value
2022-12-19T00:01:32.636Z,95134.66
2022-12-19T00:04:01.886Z,95147.81
2022-12-19T00:06:34.361Z,95153.97
2022-12-19T00:09:01.010Z,95148.69
2022-12-19T00:11:29.031Z,95140.13
2022-12-19T00:13:55.973Z,95136.91
2022-12-19T00:16:25.284Z,95135.91
2022-12-19T00:18:55.157Z,95141.00
2022-12-19T00:21:24.466Z,95147.66
2022-12-19T00:23:51.614Z,95138.19
2022-12-19T00:26:19.470Z,95144.88
2022-12-19T00:28:50.254Z,95135.50
2022-12-19T00:31:18.119Z,95133.38
2022-12-19T00:33:46.994Z,95139.25
2022-12-19T00:36:21.833Z,95137.50
2022-12-19T00:38:51.319Z,95144.94
2022-12-19T00:41:23.469Z,95149.53
2022-12-19T00:43:54.432Z,95145.50
2022-12-19T00:46:21.456Z,95154.53
2022-12-19T00:48:47.959Z,95166.09
2022-12-19T00:51:17.383Z,95154.19
2022-12-19T00:53:45.750Z,95147.34
2022-12-19T00:56:18.579Z,95149.09
2022-12-19T00:58:47.326Z,95140.47
2022-12-19T01:01:19.568Z,95148.75
2022-12-19T01:04:18.709Z,95151.56
2022-12-19T01:06:33.714Z,95141.03
2022-12-19T01:09:00.937Z,95146.91
2022-12-19T01:11:45.958Z,95153.22
2022-12-19T01:14:19.031Z,95159.25
2022-12-19T01:16:47.956Z,95152.00
2022-12-19T01:19:14.469Z,95151.63
2022-12-19T01:21:40.997Z,95146.19
2022-12-19T01:24:07.915Z,95145.44
2022-12-19T01:26:34.364Z,95141.28
2022-12-19T01:29:00.806Z,95136.38
2022-12-19T01:31:27.357Z,95130.16
2022-12-19T01:33:55.224Z,95120.84
2022-12-19T01:36:22.837Z,95134.81
2022-12-19T01:38:49.334Z,95120.69
2022-12-19T01:41:15.897Z,95105.44
2022-12-19T01:44:06.319Z,95063.84
2022-12-19T01:46:40.121Z,95075.97
2022-12-19T01:49:14.704Z,95100.94
2022-12-19T01:51:48.106Z,95091.13
2022-12-19T01:54:19.692Z,95126.56
2022-12-19T01:56:51.607Z,95127.34
2022-12-19T01:59:27.712Z,95129.09
2022-12-19T02:02:02.148Z,95122.28
2022-12-19T02:04:32.299Z,95108.66
2022-12-19T02:07:11.647Z,95138.13
2022-12-19T02:09:45.077Z,95142.88
2022-12-19T02:12:13.045Z,95140.47
2022-12-19T02:14:41.040Z,95137.78
2022-12-19T02:17:31.885Z,95120.59
2022-12-19T02:20:04.479Z,95120.44
2022-12-19T02:22:56.459Z,95134.97
2022-12-19T02:25:42.950Z,95108.94
2022-12-19T02:28:24.411Z,95101.03
2022-12-19T02:31:04.029Z,95115.34
2022-12-19T02:33:53.426Z,95071.66
2022-12-19T02:36:38.926Z,95097.72
2022-12-19T02:39:19.704Z,95083.50
2022-12-19T02:41:57.162Z,95087.72
2022-12-19T02:44:33.708Z,95092.09
2022-12-19T02:47:03.370Z,95123.59
2022-12-19T02:49:34.676Z,95100.69
2022-12-19T02:52:13.808Z,95075.16
2022-12-19T02:54:44.887Z,95080.69
2022-12-19T02:57:23.992Z,95068.34
2022-12-19T03:00:06.597Z,95076.16
2022-12-19T03:03:00.311Z,95104.38
2022-12-19T03:05:30.839Z,95125.31
2022-12-19T03:08:18.685Z,95119.78
2022-12-19T03:11:06.260Z,95142.88
2022-12-19T03:13:39.189Z,95128.75
2022-12-19T03:16:09.301Z,95099.81
2022-12-19T03:18:36.249Z,95105.88
2022-12-19T03:21:23.315Z,95105.19
2022-12-19T03:23:52.594Z,95093.66
2022-12-19T03:26:22.296Z,95130.66
2022-12-19T03:28:53.832Z,95123.03
2022-12-19T03:31:25.002Z,95125.84
2022-12-19T03:33:57.959Z,95149.53
2022-12-19T03:36:30.479Z,95144.28
2022-12-19T03:39:01.207Z,95139.59
2022-12-19T03:41:46.330Z,95125.59
2022-12-19T03:44:17.124Z,95085.59
2022-12-19T03:46:51.499Z,95154.88
2022-12-19T03:49:18.054Z,95126.09
2022-12-19T03:51:47.505Z,95138.31
2022-12-19T03:54:24.177Z,95121.59
2022-12-19T03:56:58.093Z,95107.56
2022-12-19T03:59:36.223Z,95100.66
2022-12-19T04:02:04.412Z,95126.25
2022-12-19T04:04:34.892Z,95118.81
2022-12-19T04:07:03.667Z,95114.84
2022-12-19T04:09:31.991Z,95117.84
2022-12-19T04:12:07.094Z,95111.84
2022-12-19T04:14:35.976Z,95107.00
2022-12-19T04:17:32.007Z,95128.41
2022-12-19T04:20:05.332Z,95117.44
2022-12-19T04:22:40.379Z,95111.75
2022-12-19T04:25:10.368Z,95113.06
2022-12-19T04:27:41.167Z,95126.31
2022-12-19T04:30:08.833Z,95125.97
2022-12-19T04:32:36.638Z,95130.31
2022-12-19T04:35:03.475Z,95153.66
2022-12-19T04:37:31.259Z,95152.50
2022-12-19T04:39:58.396Z,95141.72
2022-12-19T04:42:24.835Z,95137.69
2022-12-19T04:44:51.278Z,95140.13
2022-12-19T04:47:17.879Z,95138.81
2022-12-19T04:49:44.363Z,95144.88
2022-12-19T04:52:10.924Z,95148.09
2022-12-19T04:54:37.884Z,95157.13
2022-12-19T04:57:04.383Z,95133.72
2022-12-19T04:59:31.598Z,95141.28
2022-12-19T05:01:58.457Z,95124.47
2022-12-19T05:04:26.296Z,95141.81
2022-12-19T05:06:53.160Z,95125.53
2022-12-19T05:09:19.719Z,95131.31
2022-12-19T05:11:46.157Z,95135.25
2022-12-19T05:14:12.687Z,95124.31
2022-12-19T05:16:39.172Z,95107.03
2022-12-19T05:19:07.514Z,95127.97
2022-12-19T05:21:33.986Z,95132.34
2022-12-19T05:24:00.495Z,95124.91
2022-12-19T05:26:26.911Z,95130.41
2022-12-19T05:28:53.375Z,95124.97
2022-12-19T05:31:21.153Z,95118.53
2022-12-19T05:33:48.935Z,95134.00
2022-12-19T05:36:16.799Z,95125.38
2022-12-19T05:38:43.607Z,95127.13
2022-12-19T05:41:16.637Z,95114.97
2022-12-19T05:43:44.611Z,95131.03
2022-12-19T05:46:11.189Z,95131.84
2022-12-19T05:48:38.184Z,95127.28
2022-12-19T05:51:04.816Z,95114.78
2022-12-19T05:53:31.255Z,95130.56
2022-12-19T05:56:10.080Z,95132.34
2022-12-19T05:58:37.978Z,95135.84
2022-12-19T06:01:10.134Z,95135.84
2022-12-19T06:03:37.266Z,95124.84
2022-12-19T06:06:06.034Z,95120.50
2022-12-19T06:08:33.477Z,95128.75
2022-12-19T06:11:01.253Z,95124.44
2022-12-19T06:13:29.119Z,95118.38
2022-12-19T06:16:12.750Z,95118.97
2022-12-19T06:18:44.233Z,95118.19
2022-12-19T06:21:14.790Z,95124.84
2022-12-19T06:23:41.868Z,95116.25
2022-12-19T06:26:10.400Z,95112.72
2022-12-19T06:28:39.616Z,95102.50
2022-12-19T06:31:07.005Z,95114.00
2022-12-19T06:33:34.318Z,95114.75
2022-12-19T06:36:03.673Z,95118.31
2022-12-19T06:38:30.860Z,95113.19
2022-12-19T06:41:16.277Z,95108.91
2022-12-19T06:43:42.736Z,95101.41
2022-12-19T06:46:11.750Z,95104.53
2022-12-19T06:48:38.303Z,95108.47
2022-12-19T06:51:04.919Z,95111.97
2022-12-19T06:53:31.434Z,95108.63
2022-12-19T06:55:59.359Z,95104.53
2022-12-19T06:58:26.859Z,95114.31
2022-12-19T07:00:54.330Z,95116.84
2022-12-19T07:03:26.840Z,95101.91
2022-12-19T07:05:53.900Z,95110.56
2022-12-19T07:08:20.435Z,95108.00
2022-12-19T07:10:47.097Z,95113.09
2022-12-19T07:13:13.865Z,95103.88
2022-12-19T07:15:40.579Z,95100.91
2022-12-19T07:18:09.430Z,95115.47
2022-12-19T07:20:41.804Z,95114.66
2022-12-19T07:23:17.142Z,95108.41
2022-12-19T07:25:43.651Z,95107.22
2022-12-19T07:28:10.276Z,95117.50
2022-12-19T07:30:36.828Z,95116.16
2022-12-19T07:33:03.331Z,95113.66
2022-12-19T07:35:29.787Z,95116.44
2022-12-19T07:38:05.482Z,95114.09
2022-12-19T07:40:33.216Z,95110.59
2022-12-19T07:43:01.206Z,95114.59
2022-12-19T07:45:28.603Z,95119.72
2022-12-19T07:47:55.731Z,95118.53
2022-12-19T07:50:22.147Z,95104.44
2022-12-19T07:52:48.556Z,95111.00
2022-12-19T07:55:15.053Z,95117.09
2022-12-19T07:57:41.842Z,95120.84
2022-12-19T08:00:09.002Z,95122.28
2022-12-19T08:02:39.114Z,95122.47
2022-12-19T08:05:06.267Z,95128.22
2022-12-19T08:07:32.902Z,95121.19
2022-12-19T08:09:59.316Z,95125.75
2022-12-19T08:12:26.943Z,95123.22
2022-12-19T08:14:57.077Z,95129.16
2022-12-19T08:17:24.120Z,95127.59
2022-12-19T08:19:50.824Z,95126.03
2022-12-19T08:22:17.246Z,95120.53
2022-12-19T08:24:43.704Z,95113.47
2022-12-19T08:27:10.126Z,95100.09
2022-12-19T08:29:36.569Z,95096.16
2022-12-19T08:32:03.082Z,95102.41
2022-12-19T08:34:29.603Z,95115.03
2022-12-19T08:36:56.001Z,95106.19
2022-12-19T08:39:22.569Z,95098.94
2022-12-19T08:41:49.068Z,95117.03
2022-12-19T08:44:16.394Z,95115.44
2022-12-19T08:46:49.425Z,95112.72
2022-12-19T08:49:16.689Z,95103.09
2022-12-19T08:51:43.095Z,95115.09
2022-12-19T08:54:09.545Z,95123.16
2022-12-19T08:56:43.576Z,95116.06
2022-12-19T08:59:15.490Z,95122.16
2022-12-19T09:01:51.568Z,95117.84
2022-12-19T09:05:18.800Z,95114.50
2022-12-19T09:07:05.335Z,95125.50
2022-12-19T09:09:32.779Z,95132.22
2022-12-19T09:11:59.226Z,95121.41
2022-12-19T09:14:25.824Z,95127.88
2022-12-19T09:16:52.523Z,95129.28
2022-12-19T09:19:19.109Z,95125.53
2022-12-19T09:21:45.629Z,95131.25
2022-12-19T09:24:12.402Z,95130.47
2022-12-19T09:26:39.329Z,95127.72
2022-12-19T09:29:12.610Z,95131.63
2022-12-19T09:31:53.885Z,95125.53
2022-12-19T09:34:38.010Z,95123.34
2022-12-19T09:37:16.042Z,95115.84
2022-12-19T09:39:43.146Z,95121.31
2022-12-19T09:42:45.465Z,95109.88
2022-12-19T09:45:31.865Z,95111.44
2022-12-19T09:48:00.102Z,95112.44
2022-12-19T09:50:42.387Z,95104.75
2022-12-19T09:53:19.180Z,95115.22
2022-12-19T09:55:47.264Z,95093.53
2022-12-19T09:58:49.473Z,95105.94
2022-12-19T10:01:34.174Z,95105.47
2022-12-19T10:04:10.863Z,95091.66
2022-12-19T10:07:18.442Z,95095.41
2022-12-19T10:12:14.069Z,95085.69
2022-12-19T10:12:52.947Z,95093.09
2022-12-19T10:16:00.247Z,95087.31
2022-12-19T10:18:57.114Z,95089.38
2022-12-19T10:22:17.648Z,95073.78
2022-12-19T10:24:46.505Z,95076.28
2022-12-19T10:28:09.125Z,95066.97
2022-12-19T10:30:45.525Z,95053.72
2022-12-19T10:33:20.538Z,95042.91
2022-12-19T10:35:54.367Z,95046.59
2022-12-19T10:38:34.003Z,95064.91
2022-12-19T10:41:21.975Z,95055.72
2022-12-19T10:44:10.140Z,95061.53
2022-12-19T10:46:49.301Z,95060.47
2022-12-19T10:49:26.763Z,95053.50
2022-12-19T10:51:56.145Z,95051.28
2022-12-19T10:54:27.570Z,95039.88
2022-12-19T10:57:18.188Z,95028.06
2022-12-19T10:59:59.016Z,95021.84
2022-12-19T11:02:45.539Z,95025.91
2022-12-19T11:05:26.985Z,95025.13
2022-12-19T11:08:23.584Z,95034.19
2022-12-19T11:12:01.204Z,95030.25
2022-12-19T11:18:10.801Z,95024.44
2022-12-19T11:22:53.210Z,95025.16
2022-12-19T11:29:18.091Z,95027.97
2022-12-19T11:29:30.355Z,95027.22
2022-12-19T11:29:37.681Z,95026.97
2022-12-19T11:30:09.925Z,95029.25
2022-12-19T11:34:18.795Z,95024.50
2022-12-19T11:36:52.352Z,95018.97
2022-12-19T11:39:25.949Z,95006.72
2022-12-19T11:42:01.666Z,94994.75
2022-12-19T11:44:36.174Z,94985.56
2022-12-19T11:47:30.053Z,94986.00
2022-12-19T11:50:13.342Z,94988.03
2022-12-19T11:53:04.404Z,94982.28
2022-12-19T11:55:43.978Z,94978.47
2022-12-19T11:58:11.531Z,94986.34
2022-12-19T12:00:45.467Z,94984.16
2022-12-19T12:04:00.375Z,94978.47
2022-12-19T12:06:34.895Z,94976.69
2022-12-19T12:14:27.949Z,94976.38
2022-12-19T12:19:52.348Z,94984.88
2022-12-19T12:27:17.917Z,94981.19
2022-12-19T12:31:13.693Z,94985.81
2022-12-19T12:31:16.752Z,94980.69
2022-12-19T12:31:17.155Z,94978.50
2022-12-19T12:31:46.047Z,94973.91
2022-12-19T12:32:05.063Z,94971.00
2022-12-19T12:35:51.083Z,94964.84
2022-12-19T12:39:45.054Z,94975.63
2022-12-19T12:42:47.852Z,94980.34
2022-12-19T12:45:27.113Z,94978.38
2022-12-19T12:47:53.999Z,94974.53
2022-12-19T12:50:24.196Z,94982.69
2022-12-19T12:52:57.847Z,94978.16
2022-12-19T12:55:31.215Z,94982.09
2022-12-19T12:57:58.276Z,94984.03
2022-12-19T13:00:28.849Z,94972.75
2022-12-19T13:03:05.019Z,94975.91
2022-12-19T13:05:43.529Z,94974.81
2022-12-19T13:08:27.584Z,94970.44
2022-12-19T13:11:44.866Z,94966.34
2022-12-19T13:14:34.409Z,94970.22
2022-12-19T13:17:05.266Z,94962.09
2022-12-19T13:19:37.201Z,94962.53
2022-12-19T13:22:03.562Z,94958.09
2022-12-19T13:24:52.779Z,94961.91
2022-12-19T13:27:19.149Z,94957.00
2022-12-19T13:30:00.985Z,94957.13
2022-12-19T13:32:32.359Z,94954.78
2022-12-19T13:35:33.345Z,94956.75
2022-12-19T13:39:59.210Z,94960.13
2022-12-19T13:41:24.824Z,94951.06
2022-12-19T13:43:58.381Z,94949.38
2022-12-19T13:46:45.595Z,94950.41
2022-12-19T13:49:31.638Z,94953.09
2022-12-19T13:52:02.942Z,94951.19
2022-12-19T13:54:44.637Z,94953.28
2022-12-19T13:57:31.511Z,94957.84
2022-12-19T14:00:02.136Z,94975.13
2022-12-19T14:02:43.932Z,94972.50
2022-12-19T14:05:30.623Z,94970.47
2022-12-19T14:08:19.414Z,94962.72
2022-12-19T14:11:34.855Z,94965.81
2022-12-19T14:14:10.712Z,94968.09
2022-12-19T14:16:45.080Z,94971.19
2022-12-19T14:19:28.856Z,94970.69
2022-12-19T14:22:16.015Z,94963.63
2022-12-19T14:25:32.126Z,94967.63
2022-12-19T14:28:23.157Z,94961.34
2022-12-19T14:30:46.666Z,94964.97
2022-12-19T14:33:46.086Z,94959.13
2022-12-19T14:36:16.040Z,94976.09
2022-12-19T14:39:20.656Z,94969.59
2022-12-19T14:42:01.524Z,94964.19
2022-12-19T14:51:42.793Z,94963.25
2022-12-19T14:54:08.509Z,94966.66
2022-12-19T14:54:25.523Z,94956.66
2022-12-19T14:54:28.681Z,94966.72
2022-12-19T14:59:05.654Z,94958.00
2022-12-19T15:01:34.917Z,94950.16
2022-12-19T15:04:52.642Z,94958.41
2022-12-19T15:07:06.947Z,94956.50
2022-12-19T15:11:03.347Z,94951.41
2022-12-19T15:14:54.726Z,94951.44
2022-12-19T15:16:24.672Z,94952.34
2022-12-19T15:18:55.145Z,94963.41
2022-12-19T15:21:21.812Z,94967.94
2022-12-19T15:23:48.279Z,94963.44
2022-12-19T15:26:18.096Z,94952.59
2022-12-19T15:28:53.328Z,94948.47
2022-12-19T15:31:36.031Z,94952.22
2022-12-19T15:34:48.188Z,94957.16
2022-12-19T15:37:11.613Z,94956.78
2022-12-19T15:39:38.165Z,94950.25
2022-12-19T15:42:06.199Z,94954.75
2022-12-19T15:44:36.665Z,94960.44
2022-12-19T15:47:06.453Z,94953.97
2022-12-19T15:49:35.012Z,94955.97
2022-12-19T15:52:01.992Z,94959.50
2022-12-19T15:57:25.449Z,94952.03
2022-12-19T15:59:52.211Z,94947.69
2022-12-19T16:02:22.656Z,94940.00
2022-12-19T16:04:51.307Z,94941.78
2022-12-19T16:07:23.191Z,94932.75
2022-12-19T16:09:50.220Z,94931.00
2022-12-19T16:12:19.369Z,94936.47
2022-12-19T16:14:48.447Z,94947.75
2022-12-19T16:17:23.171Z,94948.53
2022-12-19T16:19:51.055Z,94951.84
2022-12-19T16:22:19.410Z,94945.75
2022-12-19T16:24:46.057Z,94937.28
2022-12-19T16:27:24.789Z,94936.06
2022-12-19T16:29:52.290Z,94940.59
2022-12-19T16:32:19.763Z,94933.88
2022-12-19T16:34:46.392Z,94943.94
2022-12-19T16:37:12.865Z,94939.00
2022-12-19T16:39:39.428Z,94930.34
2022-12-19T16:42:18.309Z,94926.75
2022-12-19T16:44:46.989Z,94920.09
2022-12-19T16:47:16.256Z,94924.19
2022-12-19T16:49:44.507Z,94932.47
2022-12-19T16:52:11.132Z,94933.69
2022-12-19T16:54:37.588Z,94934.81
2022-12-19T16:57:06.703Z,94929.91
2022-12-19T16:59:36.988Z,94919.34
2022-12-19T17:02:37.281Z,94926.03
2022-12-19T17:05:04.526Z,94933.19
2022-12-19T17:07:31.800Z,94939.50
2022-12-19T17:09:58.226Z,94932.06
2022-12-19T17:12:27.029Z,94939.13
2022-12-19T17:14:53.932Z,94929.72
2022-12-19T17:17:20.401Z,94933.28
2022-12-19T17:19:46.899Z,94919.91
2022-12-19T17:22:17.978Z,94927.41
2022-12-19T17:24:46.597Z,94925.84
2022-12-19T17:27:14.211Z,94937.25
2022-12-19T17:29:40.632Z,94923.63
2022-12-19T17:32:08.971Z,94926.81
2022-12-19T17:34:36.039Z,94922.25
2022-12-19T17:37:04.896Z,94907.69
2022-12-19T17:39:34.446Z,94921.28
2022-12-19T17:42:10.006Z,94921.03
2022-12-19T17:44:36.492Z,94922.63
2022-12-19T17:47:04.329Z,94913.78
2022-12-19T17:49:32.338Z,94921.84
2022-12-19T17:51:59.964Z,94924.97
2022-12-19T17:54:27.006Z,94920.78
2022-12-19T17:56:54.076Z,94919.81
2022-12-19T17:59:20.955Z,94915.03
2022-12-19T18:01:47.746Z,94915.63
2022-12-19T18:04:17.287Z,94912.66
2022-12-19T18:06:44.117Z,94907.13
2022-12-19T18:09:21.736Z,94911.81
2022-12-19T18:11:49.533Z,94914.16
2022-12-19T18:14:17.174Z,94911.97
2022-12-19T18:16:45.233Z,94910.56
2022-12-19T18:19:18.366Z,94906.59
2022-12-19T18:21:45.179Z,94900.44
2022-12-19T18:24:12.436Z,94906.75
2022-12-19T18:26:38.951Z,94909.88
2022-12-19T18:29:05.438Z,94913.94
2022-12-19T18:31:31.991Z,94925.13
2022-12-19T18:34:06.959Z,94916.31
2022-12-19T18:36:40.363Z,94922.72
2022-12-19T18:39:19.074Z,94919.91
2022-12-19T18:41:45.585Z,94912.28
2022-12-19T18:44:12.008Z,94911.00
2022-12-19T18:46:38.674Z,94903.25
2022-12-19T18:49:06.439Z,94904.94
2022-12-19T18:51:33.057Z,94909.09
2022-12-19T18:54:00.039Z,94916.91
2022-12-19T18:56:26.604Z,94919.63
2022-12-19T18:58:53.059Z,94913.06
2022-12-19T19:01:21.679Z,94917.78
2022-12-19T19:03:59.237Z,94919.13
2022-12-19T19:06:30.261Z,94907.53
2022-12-19T19:08:58.482Z,94912.50
2022-12-19T19:11:42.463Z,94904.44
2022-12-19T19:14:09.216Z,94892.06
2022-12-19T19:16:36.995Z,94904.69
2022-12-19T19:19:06.246Z,94902.88
2022-12-19T19:21:34.766Z,94904.81
2022-12-19T19:24:11.103Z,94899.69
2022-12-19T19:26:37.903Z,94890.84
2022-12-19T19:29:04.849Z,94897.75
2022-12-19T19:31:36.455Z,94899.56
2022-12-19T19:34:14.539Z,94889.47
2022-12-19T19:36:45.316Z,94882.44
2022-12-19T19:39:13.832Z,94882.22
2022-12-19T19:41:40.310Z,94884.63
2022-12-19T19:44:06.932Z,94884.28
2022-12-19T19:46:33.523Z,94882.13
2022-12-19T19:48:59.985Z,94883.34
2022-12-19T19:51:28.553Z,94888.72
2022-12-19T19:53:55.467Z,94883.44
2022-12-19T19:56:21.992Z,94880.09
2022-12-19T19:58:48.439Z,94879.84
2022-12-19T20:01:15.340Z,94875.50
2022-12-19T20:03:43.197Z,94873.75
2022-12-19T20:06:10.232Z,94866.28
2022-12-19T20:08:40.112Z,94869.03
2022-12-19T20:11:08.323Z,94869.25
2022-12-19T20:13:35.072Z,94875.16
2022-12-19T20:16:11.095Z,94880.88
2022-12-19T20:18:39.792Z,94871.59
2022-12-19T20:21:13.409Z,94878.88
2022-12-19T20:23:41.633Z,94877.28
2022-12-19T20:26:08.931Z,94870.19
2022-12-19T20:28:35.556Z,94870.53
2022-12-19T20:31:02.135Z,94870.31
2022-12-19T20:33:28.881Z,94870.31
2022-12-19T20:35:56.660Z,94868.56
2022-12-19T20:38:23.677Z,94864.78
2022-12-19T20:40:52.857Z,94866.13
2022-12-19T20:43:19.807Z,94868.88
2022-12-19T20:45:46.296Z,94862.41
2022-12-19T20:48:12.852Z,94865.75
2022-12-19T20:50:43.232Z,94862.75
2022-12-19T20:53:09.988Z,94882.88
2022-12-19T20:55:36.419Z,94877.50
2022-12-19T20:58:02.850Z,94875.16
2022-12-19T21:00:29.324Z,94870.81
2022-12-19T21:05:42.250Z,94873.72
2022-12-19T21:08:08.653Z,94878.66
2022-12-19T21:10:35.588Z,94881.41
2022-12-19T21:13:02.032Z,94874.94
2022-12-19T21:15:28.555Z,94880.31
2022-12-19T21:17:54.991Z,94878.34
2022-12-19T21:20:21.417Z,94880.59
2022-12-19T21:22:47.851Z,94868.56
2022-12-19T21:25:14.404Z,94871.88
2022-12-19T21:27:40.819Z,94879.38
2022-12-19T21:30:08.039Z,94869.09
2022-12-19T21:32:34.469Z,94866.19
2022-12-19T21:35:00.935Z,94876.88
2022-12-19T21:37:27.365Z,94876.31
2022-12-19T21:39:53.792Z,94876.72
2022-12-19T21:42:20.245Z,94876.97
2022-12-19T21:44:46.673Z,94876.97
2022-12-19T21:47:13.291Z,94885.41
2022-12-19T21:49:39.834Z,94873.38
2022-12-19T21:52:06.258Z,94880.28
2022-12-19T21:54:32.713Z,94881.16
2022-12-19T21:56:59.233Z,94884.19
2022-12-19T21:59:25.694Z,94875.56
2022-12-19T22:01:52.239Z,94883.50
2022-12-19T22:04:23.776Z,94879.13
2022-12-19T22:06:50.936Z,94871.66
2022-12-19T22:09:20.287Z,94877.56
2022-12-19T22:11:46.940Z,94861.63
2022-12-19T22:14:15.064Z,94868.72
2022-12-19T22:16:41.933Z,94864.03
2022-12-19T22:19:15.715Z,94858.75
2022-12-19T22:21:42.657Z,94867.03
2022-12-19T22:24:11.893Z,94856.59
2022-12-19T22:26:38.913Z,94863.69
2022-12-19T22:29:10.863Z,94872.16
2022-12-19T22:31:38.774Z,94874.13
2022-12-19T22:34:08.316Z,94870.78
2022-12-19T22:36:36.990Z,94870.00
2022-12-19T22:39:06.824Z,94862.75
2022-12-19T22:41:35.221Z,94862.31
2022-12-19T22:44:02.224Z,94862.75
2022-12-19T22:46:31.448Z,94866.28
2022-12-19T22:49:00.367Z,94864.72
2022-12-19T22:51:28.996Z,94873.00
2022-12-19T22:53:56.439Z,94871.28
2022-12-19T22:56:26.217Z,94889.22
2022-12-19T22:58:54.815Z,94893.78
2022-12-19T23:01:29.025Z,94866.03
2022-12-19T23:03:57.830Z,94882.16
2022-12-19T23:06:27.389Z,94889.47
2022-12-19T23:08:54.104Z,94878.47
2022-12-19T23:11:29.381Z,94895.44
2022-12-19T23:13:55.851Z,94881.06
2022-12-19T23:16:22.336Z,94883.00
2022-12-19T23:18:48.809Z,94886.13
2022-12-19T23:21:21.021Z,94878.44
2022-12-19T23:23:49.449Z,94880.38
2022-12-19T23:26:19.091Z,94870.72
2022-12-19T23:28:54.991Z,94874.97
2022-12-19T23:31:21.577Z,94864.28
2022-12-19T23:33:48.341Z,94860.09
2022-12-19T23:36:15.413Z,94855.16
2022-12-19T23:38:43.320Z,94855.06
2022-12-19T23:41:12.586Z,94847.50
2022-12-19T23:43:40.226Z,94852.78
2022-12-19T23:46:08.335Z,94853.38
2022-12-19T23:48:34.952Z,94846.25
2022-12-19T23:51:03.715Z,94846.38
2022-12-19T23:53:30.885Z,94840.94
2022-12-19T23:55:57.732Z,94831.84
2022-12-19T23:58:25.128Z,94835.66
